Belmont, North Carolina
Current Conditions -  °F | °C
As of 10:52 PM on Thursday 18 Dec 2014 (Local Time) from KCLT Reporting Station
Scattered Clouds Scattered Clouds  
Wind Chill: 47°   Ceiling: Unl
Heat Index: 47°   Visibility: 10mi
Dew Point: 24°   Wind: 3mph
Humidity: 41%   Direction: NA
Pressure: 30.11"   Gusts: NA
Location:  35.24°N, 81.04°W
Report Text: KCLT 190352Z VRB03KT 10SM SCT065 SCT250 08/M04 A3011 RMK AO2 SLP195 T00831044
Loading
Personal Weather Stations






























Interactive Weather Map New forecast layout! Learn more

10-Day Weather Forecast

Advertisements
Track Severe Weather on mobile